sensor_id;sensor_type;location;lat;lon;timestamp;P1;durP1;ratioP1;P2;durP2;ratioP2
71174;SDS011;58876;51.994;4.472;2023-03-31T00:02:08;7.54;;;5.56;;
71174;SDS011;58876;51.994;4.472;2023-03-31T00:04:40;6.97;;;5.24;;
71174;SDS011;58876;51.994;4.472;2023-03-31T00:07:13;6.85;;;5.23;;
71174;SDS011;58876;51.994;4.472;2023-03-31T00:09:40;6.04;;;4.65;;
71174;SDS011;58876;51.994;4.472;2023-03-31T00:12:10;6.27;;;4.83;;
71174;SDS011;58876;51.994;4.472;2023-03-31T00:14:37;5.44;;;4.28;;
71174;SDS011;58876;51.994;4.472;2023-03-31T00:17:03;5.99;;;4.70;;
71174;SDS011;58876;51.994;4.472;2023-03-31T00:19:28;6.07;;;4.58;;
71174;SDS011;58876;51.994;4.472;2023-03-31T00:21:57;5.76;;;4.34;;
71174;SDS011;58876;51.994;4.472;2023-03-31T00:24:27;5.71;;;4.35;;
71174;SDS011;58876;51.994;4.472;2023-03-31T00:26:57;5.50;;;4.29;;
71174;SDS011;58876;51.994;4.472;2023-03-31T00:29:26;5.32;;;4.08;;
71174;SDS011;58876;51.994;4.472;2023-03-31T00:31:52;5.91;;;4.59;;
71174;SDS011;58876;51.994;4.472;2023-03-31T00:34:18;5.80;;;4.47;;
71174;SDS011;58876;51.994;4.472;2023-03-31T00:36:43;5.18;;;4.13;;
71174;SDS011;58876;51.994;4.472;2023-03-31T00:39:12;5.00;;;4.11;;
71174;SDS011;58876;51.994;4.472;2023-03-31T00:41:40;5.22;;;4.29;;
71174;SDS011;58876;51.994;4.472;2023-03-31T00:44:08;5.03;;;4.17;;
71174;SDS011;58876;51.994;4.472;2023-03-31T00:46:45;4.76;;;4.02;;
71174;SDS011;58876;51.994;4.472;2023-03-31T00:49:33;5.16;;;4.17;;
71174;SDS011;58876;51.994;4.472;2023-03-31T00:52:06;5.51;;;4.35;;
71174;SDS011;58876;51.994;4.472;2023-03-31T00:54:39;5.42;;;4.21;;
71174;SDS011;58876;51.994;4.472;2023-03-31T00:57:09;5.22;;;4.14;;
71174;SDS011;58876;51.994;4.472;2023-03-31T00:59:38;4.99;;;4.07;;
71174;SDS011;58876;51.994;4.472;2023-03-31T01:02:08;4.75;;;3.95;;
71174;SDS011;58876;51.994;4.472;2023-03-31T01:04:38;4.55;;;3.78;;
71174;SDS011;58876;51.994;4.472;2023-03-31T01:07:15;5.09;;;4.34;;
71174;SDS011;58876;51.994;4.472;2023-03-31T01:09:58;4.38;;;3.76;;
71174;SDS011;58876;51.994;4.472;2023-03-31T01:12:26;4.72;;;4.04;;
71174;SDS011;58876;51.994;4.472;2023-03-31T01:14:52;5.08;;;4.23;;
71174;SDS011;58876;51.994;4.472;2023-03-31T01:17:18;4.93;;;4.16;;
71174;SDS011;58876;51.994;4.472;2023-03-31T01:26:07;5.44;;;4.30;;
71174;SDS011;58876;51.994;4.472;2023-03-31T01:31:09;5.11;;;4.12;;
71174;SDS011;58876;51.994;4.472;2023-03-31T01:37:05;5.52;;;4.43;;
71174;SDS011;58876;51.994;4.472;2023-03-31T01:50:39;6.69;;;5.35;;
71174;SDS011;58876;51.994;4.472;2023-03-31T01:55:45;5.58;;;4.65;;
71174;SDS011;58876;51.994;4.472;2023-03-31T01:58:41;5.77;;;4.83;;
71174;SDS011;58876;51.994;4.472;2023-03-31T02:01:21;6.56;;;5.15;;
71174;SDS011;58876;51.994;4.472;2023-03-31T02:03:55;6.01;;;4.84;;
71174;SDS011;58876;51.994;4.472;2023-03-31T02:06:29;6.62;;;5.25;;
71174;SDS011;58876;51.994;4.472;2023-03-31T02:09:05;6.08;;;4.81;;
71174;SDS011;58876;51.994;4.472;2023-03-31T02:11:35;5.71;;;4.58;;
71174;SDS011;58876;51.994;4.472;2023-03-31T02:14:07;6.14;;;4.77;;
71174;SDS011;58876;51.994;4.472;2023-03-31T02:16:37;6.10;;;4.66;;
71174;SDS011;58876;51.994;4.472;2023-03-31T02:19:11;6.28;;;4.83;;
71174;SDS011;58876;51.994;4.472;2023-03-31T02:21:42;5.94;;;4.66;;
71174;SDS011;58876;51.994;4.472;2023-03-31T02:24:14;5.49;;;4.43;;
71174;SDS011;58876;51.994;4.472;2023-03-31T02:26:48;5.16;;;4.26;;
71174;SDS011;58876;51.994;4.472;2023-03-31T02:29:22;6.24;;;5.18;;
71174;SDS011;58876;51.994;4.472;2023-03-31T02:32:02;5.78;;;4.90;;
71174;SDS011;58876;51.994;4.472;2023-03-31T02:34:33;5.43;;;4.76;;
71174;SDS011;58876;51.994;4.472;2023-03-31T02:36:58;5.75;;;5.07;;
71174;SDS011;58876;51.994;4.472;2023-03-31T02:39:25;5.00;;;4.51;;
71174;SDS011;58876;51.994;4.472;2023-03-31T02:41:57;5.19;;;4.67;;
71174;SDS011;58876;51.994;4.472;2023-03-31T02:44:22;4.94;;;4.56;;
71174;SDS011;58876;51.994;4.472;2023-03-31T02:46:48;5.03;;;4.61;;
71174;SDS011;58876;51.994;4.472;2023-03-31T02:49:15;4.63;;;4.23;;
71174;SDS011;58876;51.994;4.472;2023-03-31T02:57:20;4.45;;;4.01;;
71174;SDS011;58876;51.994;4.472;2023-03-31T03:08:55;4.01;;;3.24;;
71174;SDS011;58876;51.994;4.472;2023-03-31T03:11:30;3.85;;;3.10;;
71174;SDS011;58876;51.994;4.472;2023-03-31T03:16:47;3.37;;;2.64;;
71174;SDS011;58876;51.994;4.472;2023-03-31T03:19:20;3.72;;;2.91;;
71174;SDS011;58876;51.994;4.472;2023-03-31T03:21:47;2.84;;;2.29;;
71174;SDS011;58876;51.994;4.472;2023-03-31T03:24:14;2.75;;;2.20;;
71174;SDS011;58876;51.994;4.472;2023-03-31T03:26:42;2.59;;;2.04;;
71174;SDS011;58876;51.994;4.472;2023-03-31T03:29:09;3.01;;;2.32;;
71174;SDS011;58876;51.994;4.472;2023-03-31T03:31:37;3.04;;;2.33;;
71174;SDS011;58876;51.994;4.472;2023-03-31T03:34:03;2.64;;;2.02;;
71174;SDS011;58876;51.994;4.472;2023-03-31T03:36:29;3.03;;;2.33;;
71174;SDS011;58876;51.994;4.472;2023-03-31T03:38:54;3.77;;;2.89;;
71174;SDS011;58876;51.994;4.472;2023-03-31T03:41:20;3.50;;;2.69;;
71174;SDS011;58876;51.994;4.472;2023-03-31T03:43:45;3.76;;;2.95;;
71174;SDS011;58876;51.994;4.472;2023-03-31T03:46:11;4.32;;;3.53;;
71174;SDS011;58876;51.994;4.472;2023-03-31T03:48:37;3.77;;;3.27;;
71174;SDS011;58876;51.994;4.472;2023-03-31T03:51:02;3.43;;;3.07;;
71174;SDS011;58876;51.994;4.472;2023-03-31T03:53:28;3.72;;;3.33;;
71174;SDS011;58876;51.994;4.472;2023-03-31T03:55:53;3.29;;;2.95;;
71174;SDS011;58876;51.994;4.472;2023-03-31T03:58:19;4.49;;;4.05;;
71174;SDS011;58876;51.994;4.472;2023-03-31T04:00:45;4.17;;;3.87;;
71174;SDS011;58876;51.994;4.472;2023-03-31T04:03:11;4.43;;;4.17;;
71174;SDS011;58876;51.994;4.472;2023-03-31T04:05:37;4.78;;;4.77;;
71174;SDS011;58876;51.994;4.472;2023-03-31T04:08:02;4.10;;;4.10;;
71174;SDS011;58876;51.994;4.472;2023-03-31T04:10:30;4.60;;;4.60;;
71174;SDS011;58876;51.994;4.472;2023-03-31T04:12:56;4.64;;;4.64;;
71174;SDS011;58876;51.994;4.472;2023-03-31T04:15:21;4.34;;;4.34;;
71174;SDS011;58876;51.994;4.472;2023-03-31T04:17:47;4.45;;;4.45;;
71174;SDS011;58876;51.994;4.472;2023-03-31T04:20:15;4.42;;;4.32;;
71174;SDS011;58876;51.994;4.472;2023-03-31T04:22:41;4.19;;;4.15;;
71174;SDS011;58876;51.994;4.472;2023-03-31T04:25:11;4.19;;;4.17;;
71174;SDS011;58876;51.994;4.472;2023-03-31T04:27:45;4.16;;;4.13;;
71174;SDS011;58876;51.994;4.472;2023-03-31T04:30:18;4.03;;;3.94;;
71174;SDS011;58876;51.994;4.472;2023-03-31T04:32:51;4.32;;;4.08;;
71174;SDS011;58876;51.994;4.472;2023-03-31T04:35:20;4.46;;;4.12;;
71174;SDS011;58876;51.994;4.472;2023-03-31T04:37:47;4.13;;;3.89;;
71174;SDS011;58876;51.994;4.472;2023-03-31T04:40:14;4.39;;;4.14;;
71174;SDS011;58876;51.994;4.472;2023-03-31T04:42:42;4.44;;;4.13;;
71174;SDS011;58876;51.994;4.472;2023-03-31T04:45:09;4.01;;;3.72;;
71174;SDS011;58876;51.994;4.472;2023-03-31T04:47:36;3.81;;;3.53;;
71174;SDS011;58876;51.994;4.472;2023-03-31T04:50:01;3.95;;;3.74;;
71174;SDS011;58876;51.994;4.472;2023-03-31T04:52:27;3.60;;;3.44;;
71174;SDS011;58876;51.994;4.472;2023-03-31T04:54:52;3.69;;;3.44;;
71174;SDS011;58876;51.994;4.472;2023-03-31T04:57:18;3.83;;;3.69;;
71174;SDS011;58876;51.994;4.472;2023-03-31T04:59:44;3.45;;;3.26;;
71174;SDS011;58876;51.994;4.472;2023-03-31T05:02:10;3.33;;;3.09;;
71174;SDS011;58876;51.994;4.472;2023-03-31T05:04:35;3.22;;;3.14;;
71174;SDS011;58876;51.994;4.472;2023-03-31T05:07:02;3.19;;;3.00;;
71174;SDS011;58876;51.994;4.472;2023-03-31T05:09:27;3.46;;;3.16;;
71174;SDS011;58876;51.994;4.472;2023-03-31T05:11:53;3.06;;;2.75;;
71174;SDS011;58876;51.994;4.472;2023-03-31T05:14:19;3.00;;;2.74;;
71174;SDS011;58876;51.994;4.472;2023-03-31T05:16:45;3.13;;;2.84;;
71174;SDS011;58876;51.994;4.472;2023-03-31T05:19:10;2.86;;;2.65;;
71174;SDS011;58876;51.994;4.472;2023-03-31T05:21:36;4.09;;;3.85;;
71174;SDS011;58876;51.994;4.472;2023-03-31T05:24:02;2.51;;;2.43;;
71174;SDS011;58876;51.994;4.472;2023-03-31T05:26:28;2.56;;;2.44;;
71174;SDS011;58876;51.994;4.472;2023-03-31T05:28:54;2.31;;;2.21;;
71174;SDS011;58876;51.994;4.472;2023-03-31T05:31:20;2.30;;;2.20;;
71174;SDS011;58876;51.994;4.472;2023-03-31T05:33:47;2.40;;;2.25;;
71174;SDS011;58876;51.994;4.472;2023-03-31T05:36:13;2.10;;;1.95;;
71174;SDS011;58876;51.994;4.472;2023-03-31T05:38:41;1.97;;;1.85;;
71174;SDS011;58876;51.994;4.472;2023-03-31T05:41:07;1.93;;;1.80;;
71174;SDS011;58876;51.994;4.472;2023-03-31T05:43:34;1.76;;;1.67;;
71174;SDS011;58876;51.994;4.472;2023-03-31T05:46:01;2.00;;;1.90;;
71174;SDS011;58876;51.994;4.472;2023-03-31T05:48:26;1.74;;;1.66;;
71174;SDS011;58876;51.994;4.472;2023-03-31T05:50:56;1.75;;;1.69;;
71174;SDS011;58876;51.994;4.472;2023-03-31T05:53:23;1.53;;;1.47;;
71174;SDS011;58876;51.994;4.472;2023-03-31T05:55:48;1.65;;;1.56;;
71174;SDS011;58876;51.994;4.472;2023-03-31T05:58:14;1.49;;;1.39;;
71174;SDS011;58876;51.994;4.472;2023-03-31T06:00:39;1.40;;;1.31;;
71174;SDS011;58876;51.994;4.472;2023-03-31T06:03:05;1.56;;;1.46;;
71174;SDS011;58876;51.994;4.472;2023-03-31T06:05:32;1.82;;;1.70;;
71174;SDS011;58876;51.994;4.472;2023-03-31T06:07:58;1.76;;;1.62;;
71174;SDS011;58876;51.994;4.472;2023-03-31T06:10:24;1.48;;;1.34;;
71174;SDS011;58876;51.994;4.472;2023-03-31T06:12:50;1.83;;;1.66;;
71174;SDS011;58876;51.994;4.472;2023-03-31T06:15:15;1.94;;;1.73;;
71174;SDS011;58876;51.994;4.472;2023-03-31T06:17:41;1.75;;;1.55;;
71174;SDS011;58876;51.994;4.472;2023-03-31T06:20:07;2.00;;;1.72;;
71174;SDS011;58876;51.994;4.472;2023-03-31T06:22:32;2.18;;;1.85;;
71174;SDS011;58876;51.994;4.472;2023-03-31T06:24:58;2.25;;;2.20;;
71174;SDS011;58876;51.994;4.472;2023-03-31T06:27:23;1.75;;;1.71;;
71174;SDS011;58876;51.994;4.472;2023-03-31T06:29:48;1.76;;;1.69;;
71174;SDS011;58876;51.994;4.472;2023-03-31T06:32:14;1.93;;;1.80;;
71174;SDS011;58876;51.994;4.472;2023-03-31T06:34:39;1.88;;;1.75;;
71174;SDS011;58876;51.994;4.472;2023-03-31T06:37:05;2.26;;;2.11;;
71174;SDS011;58876;51.994;4.472;2023-03-31T06:39:30;2.20;;;2.03;;
71174;SDS011;58876;51.994;4.472;2023-03-31T06:41:56;3.07;;;2.82;;
71174;SDS011;58876;51.994;4.472;2023-03-31T06:44:21;2.95;;;2.70;;
71174;SDS011;58876;51.994;4.472;2023-03-31T06:46:48;2.39;;;2.22;;
71174;SDS011;58876;51.994;4.472;2023-03-31T06:49:14;2.58;;;2.41;;
71174;SDS011;58876;51.994;4.472;2023-03-31T06:51:39;2.43;;;2.28;;
71174;SDS011;58876;51.994;4.472;2023-03-31T06:54:05;2.88;;;2.69;;
71174;SDS011;58876;51.994;4.472;2023-03-31T06:56:30;2.90;;;2.74;;
71174;SDS011;58876;51.994;4.472;2023-03-31T06:58:56;2.72;;;2.66;;
71174;SDS011;58876;51.994;4.472;2023-03-31T07:01:21;2.70;;;2.64;;
71174;SDS011;58876;51.994;4.472;2023-03-31T07:03:47;2.67;;;2.67;;
71174;SDS011;58876;51.994;4.472;2023-03-31T07:06:12;2.67;;;2.67;;
71174;SDS011;58876;51.994;4.472;2023-03-31T07:08:37;3.01;;;3.01;;
71174;SDS011;58876;51.994;4.472;2023-03-31T07:11:03;3.42;;;3.42;;
71174;SDS011;58876;51.994;4.472;2023-03-31T07:13:28;3.35;;;3.35;;
71174;SDS011;58876;51.994;4.472;2023-03-31T07:15:54;3.70;;;3.70;;
71174;SDS011;58876;51.994;4.472;2023-03-31T07:18:20;3.88;;;3.88;;
71174;SDS011;58876;51.994;4.472;2023-03-31T07:20:50;3.88;;;3.88;;
71174;SDS011;58876;51.994;4.472;2023-03-31T07:23:16;3.82;;;3.82;;
71174;SDS011;58876;51.994;4.472;2023-03-31T07:25:42;4.02;;;4.02;;
71174;SDS011;58876;51.994;4.472;2023-03-31T07:28:07;4.17;;;4.17;;
71174;SDS011;58876;51.994;4.472;2023-03-31T07:30:33;4.29;;;4.29;;
71174;SDS011;58876;51.994;4.472;2023-03-31T07:32:58;4.15;;;4.15;;
71174;SDS011;58876;51.994;4.472;2023-03-31T07:35:25;4.41;;;4.41;;
71174;SDS011;58876;51.994;4.472;2023-03-31T07:37:51;4.57;;;4.57;;
71174;SDS011;58876;51.994;4.472;2023-03-31T07:40:19;4.54;;;4.54;;
71174;SDS011;58876;51.994;4.472;2023-03-31T07:42:47;4.05;;;4.05;;
71174;SDS011;58876;51.994;4.472;2023-03-31T07:45:15;4.12;;;4.12;;
71174;SDS011;58876;51.994;4.472;2023-03-31T07:47:41;3.83;;;3.82;;
71174;SDS011;58876;51.994;4.472;2023-03-31T07:50:08;4.40;;;4.20;;
71174;SDS011;58876;51.994;4.472;2023-03-31T07:52:35;4.25;;;3.93;;
71174;SDS011;58876;51.994;4.472;2023-03-31T07:55:00;4.55;;;4.08;;
71174;SDS011;58876;51.994;4.472;2023-03-31T07:57:26;4.89;;;4.35;;
71174;SDS011;58876;51.994;4.472;2023-03-31T07:59:52;5.49;;;4.92;;
71174;SDS011;58876;51.994;4.472;2023-03-31T08:02:17;7.07;;;6.82;;
71174;SDS011;58876;51.994;4.472;2023-03-31T08:04:43;5.51;;;5.32;;
71174;SDS011;58876;51.994;4.472;2023-03-31T08:07:11;5.80;;;5.63;;
71174;SDS011;58876;51.994;4.472;2023-03-31T08:09:38;5.39;;;5.26;;
71174;SDS011;58876;51.994;4.472;2023-03-31T08:12:05;5.10;;;4.84;;
71174;SDS011;58876;51.994;4.472;2023-03-31T08:14:30;5.32;;;5.00;;
71174;SDS011;58876;51.994;4.472;2023-03-31T08:16:56;4.89;;;4.76;;
71174;SDS011;58876;51.994;4.472;2023-03-31T08:19:25;4.50;;;4.50;;
71174;SDS011;58876;51.994;4.472;2023-03-31T08:21:50;4.77;;;4.51;;
71174;SDS011;58876;51.994;4.472;2023-03-31T08:24:16;5.09;;;4.85;;
71174;SDS011;58876;51.994;4.472;2023-03-31T08:26:42;4.86;;;4.54;;
71174;SDS011;58876;51.994;4.472;2023-03-31T08:29:08;4.91;;;4.61;;
71174;SDS011;58876;51.994;4.472;2023-03-31T08:31:33;5.69;;;5.18;;
71174;SDS011;58876;51.994;4.472;2023-03-31T08:33:59;5.80;;;5.31;;
71174;SDS011;58876;51.994;4.472;2023-03-31T08:36:25;6.28;;;5.78;;
71174;SDS011;58876;51.994;4.472;2023-03-31T08:38:51;6.13;;;6.02;;
71174;SDS011;58876;51.994;4.472;2023-03-31T08:44:06;8.47;;;8.47;;
71174;SDS011;58876;51.994;4.472;2023-03-31T08:46:39;6.79;;;6.51;;
71174;SDS011;58876;51.994;4.472;2023-03-31T08:49:08;7.84;;;7.16;;
71174;SDS011;58876;51.994;4.472;2023-03-31T08:51:41;7.82;;;6.92;;
71174;SDS011;58876;51.994;4.472;2023-03-31T08:54:39;7.17;;;6.13;;
71174;SDS011;58876;51.994;4.472;2023-03-31T08:57:20;8.39;;;7.08;;
71174;SDS011;58876;51.994;4.472;2023-03-31T08:59:52;8.53;;;7.04;;
71174;SDS011;58876;51.994;4.472;2023-03-31T09:05:36;29.73;;;29.27;;
71174;SDS011;58876;51.994;4.472;2023-03-31T09:18:54;6.26;;;5.23;;
71174;SDS011;58876;51.994;4.472;2023-03-31T09:24:12;7.32;;;5.82;;
71174;SDS011;58876;51.994;4.472;2023-03-31T09:26:52;7.75;;;5.98;;
71174;SDS011;58876;51.994;4.472;2023-03-31T09:29:36;7.83;;;5.86;;
71174;SDS011;58876;51.994;4.472;2023-03-31T09:32:27;8.18;;;6.00;;
71174;SDS011;58876;51.994;4.472;2023-03-31T09:34:56;8.48;;;6.39;;
71174;SDS011;58876;51.994;4.472;2023-03-31T09:37:31;7.99;;;6.23;;
71174;SDS011;58876;51.994;4.472;2023-03-31T09:39:58;8.68;;;6.77;;
71174;SDS011;58876;51.994;4.472;2023-03-31T09:42:26;23.91;;;22.35;;
71174;SDS011;58876;51.994;4.472;2023-03-31T09:44:52;17.37;;;17.37;;
71174;SDS011;58876;51.994;4.472;2023-03-31T09:49:55;7.13;;;5.82;;
71174;SDS011;58876;51.994;4.472;2023-03-31T09:52:34;7.37;;;5.70;;
71174;SDS011;58876;51.994;4.472;2023-03-31T09:55:08;9.31;;;7.47;;
71174;SDS011;58876;51.994;4.472;2023-03-31T09:57:52;8.24;;;7.43;;
71174;SDS011;58876;51.994;4.472;2023-03-31T10:00:19;7.74;;;6.98;;
71174;SDS011;58876;51.994;4.472;2023-03-31T10:02:47;9.23;;;8.14;;
71174;SDS011;58876;51.994;4.472;2023-03-31T10:05:24;9.04;;;7.82;;
71174;SDS011;58876;51.994;4.472;2023-03-31T10:10:36;6.79;;;5.72;;
71174;SDS011;58876;51.994;4.472;2023-03-31T10:13:06;7.56;;;6.25;;
71174;SDS011;58876;51.994;4.472;2023-03-31T10:15:38;6.22;;;5.03;;
71174;SDS011;58876;51.994;4.472;2023-03-31T10:18:04;6.35;;;4.76;;
71174;SDS011;58876;51.994;4.472;2023-03-31T10:22:55;7.90;;;5.49;;
71174;SDS011;58876;51.994;4.472;2023-03-31T10:25:26;8.09;;;5.54;;
71174;SDS011;58876;51.994;4.472;2023-03-31T10:27:52;7.64;;;5.17;;
71174;SDS011;58876;51.994;4.472;2023-03-31T10:30:22;8.08;;;5.58;;
71174;SDS011;58876;51.994;4.472;2023-03-31T10:32:59;6.96;;;4.89;;
71174;SDS011;58876;51.994;4.472;2023-03-31T10:35:31;7.22;;;5.11;;
71174;SDS011;58876;51.994;4.472;2023-03-31T10:38:09;6.96;;;4.94;;
71174;SDS011;58876;51.994;4.472;2023-03-31T10:40:39;6.51;;;4.63;;
71174;SDS011;58876;51.994;4.472;2023-03-31T10:43:14;7.07;;;5.01;;
71174;SDS011;58876;51.994;4.472;2023-03-31T10:45:47;7.49;;;5.18;;
71174;SDS011;58876;51.994;4.472;2023-03-31T10:48:25;7.11;;;4.87;;
71174;SDS011;58876;51.994;4.472;2023-03-31T10:50:53;7.95;;;5.42;;
71174;SDS011;58876;51.994;4.472;2023-03-31T10:53:24;7.93;;;5.38;;
71174;SDS011;58876;51.994;4.472;2023-03-31T10:55:56;8.13;;;5.60;;
71174;SDS011;58876;51.994;4.472;2023-03-31T10:58:30;6.73;;;4.88;;
71174;SDS011;58876;51.994;4.472;2023-03-31T11:04:51;7.43;;;5.21;;
71174;SDS011;58876;51.994;4.472;2023-03-31T11:07:27;6.60;;;4.58;;
71174;SDS011;58876;51.994;4.472;2023-03-31T11:10:08;6.45;;;4.45;;
71174;SDS011;58876;51.994;4.472;2023-03-31T11:13:24;6.38;;;4.58;;
71174;SDS011;58876;51.994;4.472;2023-03-31T11:16:17;5.82;;;4.23;;
71174;SDS011;58876;51.994;4.472;2023-03-31T11:21:56;6.41;;;4.63;;
71174;SDS011;58876;51.994;4.472;2023-03-31T11:29:55;4.67;;;3.54;;
71174;SDS011;58876;51.994;4.472;2023-03-31T11:35:28;4.37;;;3.19;;
71174;SDS011;58876;51.994;4.472;2023-03-31T11:38:18;4.45;;;3.23;;
71174;SDS011;58876;51.994;4.472;2023-03-31T11:46:18;4.37;;;3.08;;
71174;SDS011;58876;51.994;4.472;2023-03-31T11:48:53;4.30;;;2.99;;
71174;SDS011;58876;51.994;4.472;2023-03-31T11:52:11;3.97;;;2.79;;
71174;SDS011;58876;51.994;4.472;2023-03-31T11:57:53;4.28;;;3.09;;
71174;SDS011;58876;51.994;4.472;2023-03-31T12:00:20;4.08;;;3.00;;
71174;SDS011;58876;51.994;4.472;2023-03-31T12:05:49;3.66;;;2.72;;
71174;SDS011;58876;51.994;4.472;2023-03-31T12:08:33;3.81;;;2.75;;
71174;SDS011;58876;51.994;4.472;2023-03-31T12:11:08;4.12;;;3.01;;
71174;SDS011;58876;51.994;4.472;2023-03-31T12:16:09;4.91;;;3.53;;
71174;SDS011;58876;51.994;4.472;2023-03-31T12:18:59;4.51;;;3.33;;
71174;SDS011;58876;51.994;4.472;2023-03-31T12:21:33;5.35;;;3.89;;
71174;SDS011;58876;51.994;4.472;2023-03-31T12:24:04;5.53;;;4.03;;
71174;SDS011;58876;51.994;4.472;2023-03-31T12:29:25;4.88;;;3.62;;
71174;SDS011;58876;51.994;4.472;2023-03-31T12:31:57;5.50;;;4.12;;
71174;SDS011;58876;51.994;4.472;2023-03-31T12:34:27;5.01;;;3.90;;
71174;SDS011;58876;51.994;4.472;2023-03-31T12:37:15;5.32;;;4.21;;
71174;SDS011;58876;51.994;4.472;2023-03-31T12:43:06;4.74;;;3.95;;
71174;SDS011;58876;51.994;4.472;2023-03-31T12:52:07;3.34;;;2.94;;
71174;SDS011;58876;51.994;4.472;2023-03-31T12:54:56;3.50;;;3.01;;
71174;SDS011;58876;51.994;4.472;2023-03-31T12:58:14;3.14;;;2.64;;
71174;SDS011;58876;51.994;4.472;2023-03-31T13:08:58;3.12;;;2.59;;
71174;SDS011;58876;51.994;4.472;2023-03-31T13:14:19;2.90;;;2.48;;
71174;SDS011;58876;51.994;4.472;2023-03-31T13:16:51;2.91;;;2.54;;
71174;SDS011;58876;51.994;4.472;2023-03-31T13:19:35;2.62;;;2.29;;
71174;SDS011;58876;51.994;4.472;2023-03-31T13:22:04;3.16;;;2.74;;
71174;SDS011;58876;51.994;4.472;2023-03-31T13:24:30;2.98;;;2.53;;
71174;SDS011;58876;51.994;4.472;2023-03-31T13:27:02;2.81;;;2.34;;
71174;SDS011;58876;51.994;4.472;2023-03-31T13:29:58;3.36;;;2.82;;
71174;SDS011;58876;51.994;4.472;2023-03-31T13:32:26;3.05;;;2.63;;
71174;SDS011;58876;51.994;4.472;2023-03-31T13:35:02;2.77;;;2.41;;
71174;SDS011;58876;51.994;4.472;2023-03-31T13:40:15;2.56;;;2.24;;
71174;SDS011;58876;51.994;4.472;2023-03-31T13:43:07;3.10;;;2.77;;
71174;SDS011;58876;51.994;4.472;2023-03-31T13:45:58;2.29;;;2.29;;
71174;SDS011;58876;51.994;4.472;2023-03-31T13:57:27;2.91;;;2.60;;
71174;SDS011;58876;51.994;4.472;2023-03-31T14:09:03;2.90;;;2.65;;
71174;SDS011;58876;51.994;4.472;2023-03-31T14:11:31;3.09;;;2.77;;
71174;SDS011;58876;51.994;4.472;2023-03-31T14:14:00;2.80;;;2.51;;
71174;SDS011;58876;51.994;4.472;2023-03-31T14:26:01;2.82;;;2.49;;
71174;SDS011;58876;51.994;4.472;2023-03-31T14:31:26;2.42;;;2.16;;
71174;SDS011;58876;51.994;4.472;2023-03-31T14:34:33;2.49;;;2.21;;
71174;SDS011;58876;51.994;4.472;2023-03-31T14:37:09;2.66;;;2.27;;
71174;SDS011;58876;51.994;4.472;2023-03-31T14:39:43;2.45;;;2.12;;
71174;SDS011;58876;51.994;4.472;2023-03-31T14:42:15;2.76;;;2.42;;
71174;SDS011;58876;51.994;4.472;2023-03-31T14:44:46;3.16;;;2.93;;
71174;SDS011;58876;51.994;4.472;2023-03-31T14:47:13;2.81;;;2.75;;
71174;SDS011;58876;51.994;4.472;2023-03-31T14:49:40;2.97;;;2.77;;
71174;SDS011;58876;51.994;4.472;2023-03-31T14:52:16;2.66;;;2.50;;
71174;SDS011;58876;51.994;4.472;2023-03-31T14:54:46;2.81;;;2.63;;
71174;SDS011;58876;51.994;4.472;2023-03-31T14:57:13;3.19;;;3.00;;
71174;SDS011;58876;51.994;4.472;2023-03-31T14:59:46;2.74;;;2.61;;
71174;SDS011;58876;51.994;4.472;2023-03-31T15:02:18;2.71;;;2.53;;
71174;SDS011;58876;51.994;4.472;2023-03-31T15:04:56;2.50;;;2.26;;
71174;SDS011;58876;51.994;4.472;2023-03-31T15:07:22;2.85;;;2.52;;
71174;SDS011;58876;51.994;4.472;2023-03-31T15:09:48;2.91;;;2.57;;
71174;SDS011;58876;51.994;4.472;2023-03-31T15:12:16;2.72;;;2.46;;
71174;SDS011;58876;51.994;4.472;2023-03-31T15:14:54;2.50;;;2.26;;
71174;SDS011;58876;51.994;4.472;2023-03-31T15:17:27;2.97;;;2.70;;
71174;SDS011;58876;51.994;4.472;2023-03-31T15:19:58;3.43;;;3.24;;
71174;SDS011;58876;51.994;4.472;2023-03-31T15:22:26;2.91;;;2.87;;
71174;SDS011;58876;51.994;4.472;2023-03-31T15:24:53;3.30;;;3.30;;
71174;SDS011;58876;51.994;4.472;2023-03-31T15:29:54;3.24;;;3.23;;
71174;SDS011;58876;51.994;4.472;2023-03-31T15:32:29;2.81;;;2.78;;
71174;SDS011;58876;51.994;4.472;2023-03-31T15:34:58;3.56;;;3.56;;
71174;SDS011;58876;51.994;4.472;2023-03-31T15:37:26;4.07;;;4.07;;
71174;SDS011;58876;51.994;4.472;2023-03-31T15:40:03;3.71;;;3.71;;
71174;SDS011;58876;51.994;4.472;2023-03-31T15:42:46;2.99;;;2.99;;
71174;SDS011;58876;51.994;4.472;2023-03-31T15:47:47;3.73;;;3.73;;
71174;SDS011;58876;51.994;4.472;2023-03-31T15:50:15;3.04;;;3.04;;
71174;SDS011;58876;51.994;4.472;2023-03-31T15:52:48;2.47;;;2.47;;
71174;SDS011;58876;51.994;4.472;2023-03-31T15:57:56;2.25;;;2.23;;
71174;SDS011;58876;51.994;4.472;2023-03-31T16:02:56;3.25;;;3.25;;
71174;SDS011;58876;51.994;4.472;2023-03-31T16:08:00;3.11;;;3.11;;
71174;SDS011;58876;51.994;4.472;2023-03-31T16:10:28;2.64;;;2.64;;
71174;SDS011;58876;51.994;4.472;2023-03-31T16:12:56;2.67;;;2.67;;
71174;SDS011;58876;51.994;4.472;2023-03-31T16:15:33;2.72;;;2.72;;
71174;SDS011;58876;51.994;4.472;2023-03-31T16:20:36;2.93;;;2.93;;
71174;SDS011;58876;51.994;4.472;2023-03-31T16:23:13;2.59;;;2.59;;
71174;SDS011;58876;51.994;4.472;2023-03-31T16:25:43;2.73;;;2.73;;
71174;SDS011;58876;51.994;4.472;2023-03-31T16:28:20;2.38;;;2.38;;
71174;SDS011;58876;51.994;4.472;2023-03-31T16:30:49;2.71;;;2.71;;
71174;SDS011;58876;51.994;4.472;2023-03-31T16:33:16;3.68;;;3.67;;
71174;SDS011;58876;51.994;4.472;2023-03-31T16:35:44;4.21;;;4.17;;
71174;SDS011;58876;51.994;4.472;2023-03-31T16:38:20;5.55;;;5.55;;
71174;SDS011;58876;51.994;4.472;2023-03-31T16:40:48;4.68;;;4.68;;
71174;SDS011;58876;51.994;4.472;2023-03-31T16:43:18;4.52;;;4.52;;
71174;SDS011;58876;51.994;4.472;2023-03-31T16:45:49;3.65;;;3.65;;
71174;SDS011;58876;51.994;4.472;2023-03-31T16:48:25;3.21;;;3.21;;
71174;SDS011;58876;51.994;4.472;2023-03-31T16:50:53;3.29;;;3.29;;
71174;SDS011;58876;51.994;4.472;2023-03-31T16:53:22;3.11;;;3.11;;
71174;SDS011;58876;51.994;4.472;2023-03-31T16:55:50;2.93;;;2.93;;
71174;SDS011;58876;51.994;4.472;2023-03-31T16:58:16;2.98;;;2.98;;
71174;SDS011;58876;51.994;4.472;2023-03-31T17:00:43;2.89;;;2.89;;
71174;SDS011;58876;51.994;4.472;2023-03-31T17:03:10;3.17;;;3.17;;
71174;SDS011;58876;51.994;4.472;2023-03-31T17:05:39;3.29;;;3.29;;
71174;SDS011;58876;51.994;4.472;2023-03-31T17:08:14;3.45;;;3.45;;
71174;SDS011;58876;51.994;4.472;2023-03-31T17:10:41;3.46;;;3.46;;
71174;SDS011;58876;51.994;4.472;2023-03-31T17:13:16;3.05;;;3.05;;
71174;SDS011;58876;51.994;4.472;2023-03-31T17:15:41;2.93;;;2.92;;
71174;SDS011;58876;51.994;4.472;2023-03-31T17:18:07;3.63;;;3.35;;
71174;SDS011;58876;51.994;4.472;2023-03-31T17:20:32;3.71;;;3.38;;
71174;SDS011;58876;51.994;4.472;2023-03-31T17:22:58;3.93;;;3.40;;
71174;SDS011;58876;51.994;4.472;2023-03-31T17:25:24;4.58;;;3.76;;
71174;SDS011;58876;51.994;4.472;2023-03-31T17:27:50;5.19;;;4.12;;
71174;SDS011;58876;51.994;4.472;2023-03-31T17:30:15;5.58;;;4.35;;
71174;SDS011;58876;51.994;4.472;2023-03-31T17:32:41;5.74;;;4.32;;
71174;SDS011;58876;51.994;4.472;2023-03-31T17:35:07;6.24;;;4.75;;
71174;SDS011;58876;51.994;4.472;2023-03-31T17:37:34;5.46;;;4.17;;
71174;SDS011;58876;51.994;4.472;2023-03-31T17:40:01;6.32;;;4.62;;
71174;SDS011;58876;51.994;4.472;2023-03-31T17:42:28;6.09;;;4.57;;
71174;SDS011;58876;51.994;4.472;2023-03-31T17:44:55;7.50;;;5.48;;
71174;SDS011;58876;51.994;4.472;2023-03-31T17:47:22;7.07;;;5.07;;
71174;SDS011;58876;51.994;4.472;2023-03-31T17:49:48;7.16;;;5.17;;
71174;SDS011;58876;51.994;4.472;2023-03-31T17:52:14;6.76;;;5.02;;
71174;SDS011;58876;51.994;4.472;2023-03-31T17:54:39;8.09;;;5.96;;
71174;SDS011;58876;51.994;4.472;2023-03-31T17:57:05;8.32;;;5.88;;
71174;SDS011;58876;51.994;4.472;2023-03-31T17:59:31;9.48;;;6.61;;